TimeAKST,TemperatureF,Dew PointF,Humidity,Sea Level PressureIn,VisibilityMPH,Wind Direction,Wind SpeedMPH,Gust SpeedMPH,PrecipitationIn,Events,Conditions,WindDirDegrees,DateUTC
12:53 AM,5.0,1.0,84,29.70,10.0,Calm,Calm,-,N/A,,Overcast,0,2012-12-28 09:53:00
1:53 AM,5.0,1.0,84,29.71,10.0,Calm,Calm,-,N/A,,Mostly Cloudy,0,2012-12-28 10:53:00
3:53 AM,3.0,-0.0,87,29.74,10.0,Calm,Calm,-,N/A,,Scattered Clouds,0,2012-12-28 12:53:00
4:53 AM,-2.0,-6.0,83,29.75,10.0,Calm,Calm,-,N/A,,Clear,0,2012-12-28 13:53:00
5:53 AM,-6.0,-9.9,83,29.76,10.0,Calm,Calm,-,N/A,,Clear,0,2012-12-28 14:53:00
5:57 AM,-6.0,-9.9,83,29.58,10.0,Calm,Calm,-,N/A,,Scattered Clouds,0,2012-12-28 14:57:00
6:53 AM,-6.0,-11.0,79,29.77,10.0,Calm,Calm,-,N/A,,Scattered Clouds,0,2012-12-28 15:53:00
7:53 AM,-2.0,-6.0,83,29.78,10.0,Calm,Calm,-,N/A,,Mostly Cloudy,0,2012-12-28 16:53:00
8:53 AM,-2.9,-7.1,82,29.79,10.0,Calm,Calm,-,N/A,,Mostly Cloudy,0,2012-12-28 17:53:00
9:53 AM,-2.0,-6.0,83,29.82,10.0,Calm,Calm,-,N/A,,Overcast,0,2012-12-28 18:53:00
10:53 AM,-2.0,-6.0,83,29.82,10.0,Calm,Calm,-,N/A,,Mostly Cloudy,0,2012-12-28 19:53:00
11:53 AM,-0.0,-4.0,83,29.84,10.0,Calm,Calm,-,N/A,,Scattered Clouds,0,2012-12-28 20:53:00
12:53 PM,-2.0,-7.1,79,29.85,10.0,Calm,Calm,-,N/A,,Partly Cloudy,0,2012-12-28 21:53:00
1:53 PM,-2.9,-7.1,82,29.87,10.0,Calm,Calm,-,N/A,,Partly Cloudy,0,2012-12-28 22:53:00
2:53 PM,-2.9,-8.0,79,29.88,10.0,Calm,Calm,-,N/A,,Partly Cloudy,0,2012-12-28 23:53:00
3:53 PM,-6.0,-9.9,83,29.88,10.0,WNW,3.5,-,N/A,,Partly Cloudy,300,2012-12-29 00:53:00
4:53 PM,-9.0,-13.0,83,29.90,10.0,Calm,Calm,-,N/A,,Scattered Clouds,0,2012-12-29 01:53:00
5:53 PM,-9.0,-14.1,79,29.91,10.0,NNW,3.5,-,N/A,,Partly Cloudy,330,2012-12-29 02:53:00
7:53 PM,-8.0,-13.0,79,29.91,10.0,NW,3.5,-,N/A,,Partly Cloudy,310,2012-12-29 04:53:00
8:53 PM,-5.1,-9.0,83,29.91,10.0,NW,3.5,-,N/A,,Partly Cloudy,320,2012-12-29 05:53:00
9:25 PM,-6.0,-9.9,83,29.71,10.0,NW,3.5,-,N/A,,Partly Cloudy,320,2012-12-29 06:25:00
9:53 PM,-8.0,-11.9,83,29.91,10.0,NNW,3.5,-,N/A,,Partly Cloudy,330,2012-12-29 06:53:00
10:53 PM,-2.9,-7.1,82,29.88,10.0,NNW,3.5,-,N/A,,Clear,340,2012-12-29 07:53:00
11:53 PM,-0.9,-5.1,83,29.86,10.0,NNW,4.6,-,N/A,,Clear,340,2012-12-29 08:53:00